Casper, WY

7:23 PM MDT on September 15, 2014 (GMT -0600)
North of Casper, WY | Change Station
CLOSE
Current Station
Personal Weather Station
Location: Bar Nunn, WY
Elevation: 5276 ft
Nearby Weather Stations

Elev 5276 ft 42.91 °N, 106.35 °W | Updated 4 minutes ago

Partly Cloudy
Partly Cloudy
70.8 °F
Feels Like 76 °F
N
0.0
Wind Variable Wind from North
Gusts 4.9 mph

Today
High -- | Low -- °F
--% Chance of Precip.
Yesterday
High -- | Low -- °F
Precip. -- in
6:45 AM 7:15 PM
Waning Gibbous, 50% visible
Pressure 30.01 in
Visibility 10.0 miles
Clouds Clear
Heat Index 76 °F
Dew Point 37 °F
Humidity 29%
Rainfall 0.00 in
Snow Depth 0 in , 0 in , 2 in
UV 0 out of 12
Pollen 4.60 out of 12
Air Quality Not available.
Flu Activity Not available.
METAR KCPR 160053Z 20008KT 10SM CLR 23/02 A3011 RMK AO2 SLP161 T02280017

More Conditions Fewer Conditions

Pressure 30.01 in
Visibility 10.0 miles
Clouds Clear
Heat Index 76 °F
Dew Point 37 °F
Humidity 29%
Rainfall 0.00 in
Snow Depth 0 in , 0 in , 2 in
UV 0 out of 12
Pollen 4.60 out of 12
Air Quality Not available.
Flu Activity Not available.
METAR KCPR 160053Z 20008KT 10SM CLR 23/02 A3011 RMK AO2 SLP161 T02280017

More Conditions Fewer Conditions

10-Day Weather Forecast

Almanac

Astronomy

Sep. 15, 2014 Rise Set
Actual Time 6:45 AM MDT 7:15 PM MDT
Civil Twilight 6:16 AM MDT 7:43 PM MDT
Nautical Twilight 5:43 AM MDT 8:16 PM MDT
Astronomical Twilight 5:08 AM MDT 8:51 PM MDT
Moon 11:52 PM MDT (9/15) 1:56 PM MDT (9/15)
Length of Visible Light 13h 26m
Length of Day
12h 29m
Tomorrow will be 2m 52s shorter.
Waning Gibbous, 50% of the Moon is Illuminated
Today
Waning Gibbous
Sep 15
Last Quarter
Sep 24
New
Oct 1
First Quarter
Oct 8
Full

Today's Extremes

State Highs State Lows

Community

WunderPhotos

Upload Photos

1,753,645 photos uploaded!

WunderBlogs® & News

Nearby

Snow Depth

Station Depth Elevation
Cinnabar Park 0 in 9690 ft
Loomis Park 0 in 8240 ft
Gunsight Pass 2 in 9820 ft
Blind Bull Summit 1 in 8900 ft
Big Sandy Opening 0 in 9080 ft

Earthquake Activity

City Distance Mag. Time & Date
No recent earthquake activity has been reported nearby.
Minimum magnitude displayed is 2.5.

Coastal Water Temperatures

Place Temperature
No Stations Reporting

Nearby Weather Stations